Time;durP1;ratioP1;P1;durP2;ratioP2;P2;SDS_P1;SDS_P2;PMS_P1;PMS_P2;Temp;Humidity;BMP_temperature;BMP_pressure;BME280_temperature;BME280_humidity;BME280_pressure;Samples;Min_cycle;Max_cycle;Signal;HPM_P1;HPM_P2
2021/07/15 00:02:21;;;;;;;21.40;20.10;;;;;;;;;;5033630;28;20461;-90
2021/07/15 00:04:48;;;;;;;21.70;20.57;;;;;;;;;;5034118;28;20441;-90
2021/07/15 00:07:17;;;;;;;21.70;20.70;;;;;;;;;;5016475;28;20424;-90
2021/07/15 00:09:44;;;;;;;21.40;20.20;;;;;;;;;;5033612;28;21000;-90
2021/07/15 00:12:13;;;;;;;22.27;21.23;;;;;;;;;;5034039;28;20438;-89
2021/07/15 00:14:41;;;;;;;21.70;20.40;;;;;;;;;;5034474;28;20483;-90
2021/07/15 00:17:10;;;;;;;22.07;20.93;;;;;;;;;;5033904;28;20437;-90
2021/07/15 00:19:37;;;;;;;22.30;21.20;;;;;;;;;;5033888;28;20447;-90
2021/07/15 00:22:04;;;;;;;20.70;19.80;;;;;;;;;;5034082;28;20460;-90
2021/07/15 00:24:32;;;;;;;22.53;21.10;;;;;;;;;;5036975;28;20473;-90
2021/07/15 00:27:01;;;;;;;21.93;20.80;;;;;;;;;;5037705;28;20472;-90
2021/07/15 00:29:29;;;;;;;21.30;20.10;;;;;;;;;;5037216;28;20451;-90
2021/07/15 00:31:57;;;;;;;20.43;19.33;;;;;;;;;;5037346;28;20954;-90
2021/07/15 00:34:26;;;;;;;20.83;19.83;;;;;;;;;;5037624;28;20830;-90
2021/07/15 00:36:53;;;;;;;20.10;19.10;;;;;;;;;;5037219;28;20437;-90
2021/07/15 00:39:20;;;;;;;20.17;19.17;;;;;;;;;;5037072;28;20452;-90
2021/07/15 00:41:48;;;;;;;21.80;20.90;;;;;;;;;;5037992;28;20469;-90
2021/07/15 00:44:15;;;;;;;21.50;20.30;;;;;;;;;;5037065;28;20427;-90
2021/07/15 00:46:42;;;;;;;20.80;19.43;;;;;;;;;;5037328;28;20414;-90
2021/07/15 00:49:10;;;;;;;21.77;20.53;;;;;;;;;;5036865;28;20410;-91
2021/07/15 00:51:39;;;;;;;21.03;20.10;;;;;;;;;;5037429;28;20783;-90
2021/07/15 00:54:06;;;;;;;21.53;20.33;;;;;;;;;;5036899;28;20491;-90
2021/07/15 00:56:34;;;;;;;21.03;19.83;;;;;;;;;;5019910;28;20535;-90
2021/07/15 00:59:01;;;;;;;21.20;20.20;;;;;;;;;;5036879;28;20430;-91
2021/07/15 01:01:29;;;;;;;20.50;19.40;;;;;;;;;;5019499;28;20819;-90
2021/07/15 01:03:57;;;;;;;19.67;18.73;;;;;;;;;;5036679;28;20906;-90
2021/07/15 01:06:24;;;;;;;20.57;19.67;;;;;;;;;;5036996;28;20922;-90
2021/07/15 01:08:53;;;;;;;20.60;19.70;;;;;;;;;;5019082;28;20489;-90
2021/07/15 01:11:28;;;;;;;20.70;19.27;;;;;;;;;;5037092;28;20440;-90
2021/07/15 01:13:59;;;;;;;25.83;23.53;;;;;;;;;;5036557;28;20468;-90
2021/07/15 01:16:29;;;;;;;20.10;19.20;;;;;;;;;;5019736;28;20406;-90
2021/07/15 01:19:01;;;;;;;21.20;20.20;;;;;;;;;;5036599;28;20445;-90
2021/07/15 01:21:46;;;;;;;21.43;20.33;;;;;;;;;;5036448;28;20428;-91
2021/07/15 01:24:28;;;;;;;21.30;20.40;;;;;;;;;;5036322;28;20446;-90
2021/07/15 01:27:10;;;;;;;21.77;20.77;;;;;;;;;;5036254;28;20445;-90
2021/07/15 01:32:34;;;;;;;22.70;20.80;;;;;;;;;;5113023;27;20580;-91
2021/07/15 01:35:06;;;;;;;22.20;20.90;;;;;;;;;;5112449;28;20773;-91
2021/07/15 01:37:35;;;;;;;21.70;20.60;;;;;;;;;;5112290;28;20515;-91
2021/07/15 01:40:03;;;;;;;20.20;19.20;;;;;;;;;;5112279;28;20772;-91
2021/07/15 01:42:32;;;;;;;21.23;19.80;;;;;;;;;;5112259;28;20408;-91
2021/07/15 01:44:59;;;;;;;20.40;19.50;;;;;;;;;;5111900;28;20488;-91
2021/07/15 01:47:28;;;;;;;21.70;20.50;;;;;;;;;;5111851;28;20408;-91
2021/07/15 01:49:59;;;;;;;22.50;21.40;;;;;;;;;;5112114;28;20407;-91
2021/07/15 01:52:27;;;;;;;21.80;20.50;;;;;;;;;;5111974;28;20459;-91
2021/07/15 01:54:54;;;;;;;20.50;19.40;;;;;;;;;;5111683;28;20421;-90
2021/07/15 01:57:23;;;;;;;21.93;20.83;;;;;;;;;;5111892;28;20445;-91
2021/07/15 01:59:50;;;;;;;22.40;21.40;;;;;;;;;;5111598;28;20419;-91
2021/07/15 02:02:18;;;;;;;22.10;20.90;;;;;;;;;;5110943;28;20448;-91
2021/07/15 02:04:46;;;;;;;21.80;20.70;;;;;;;;;;5111956;28;20432;-91
2021/07/15 02:07:16;;;;;;;22.07;20.67;;;;;;;;;;5111715;28;20412;-91
2021/07/15 02:09:43;;;;;;;22.03;20.03;;;;;;;;;;5111912;28;20444;-90
2021/07/15 02:12:11;;;;;;;20.93;19.93;;;;;;;;;;5111315;27;20469;-91
2021/07/15 02:14:39;;;;;;;21.90;20.70;;;;;;;;;;5111679;28;20499;-91
2021/07/15 02:17:07;;;;;;;20.20;19.17;;;;;;;;;;5111538;28;20436;-91
2021/07/15 02:19:34;;;;;;;20.07;19.07;;;;;;;;;;5110223;28;20534;-90
2021/07/15 02:22:03;;;;;;;20.70;19.60;;;;;;;;;;5111193;28;20417;-91
2021/07/15 02:24:34;;;;;;;21.63;20.50;;;;;;;;;;5111143;28;20418;-91
2021/07/15 02:27:03;;;;;;;21.80;20.50;;;;;;;;;;5111357;28;20407;-91
2021/07/15 02:29:32;;;;;;;20.93;19.90;;;;;;;;;;5111236;28;20405;-91
2021/07/15 02:32:02;;;;;;;20.23;19.23;;;;;;;;;;5110806;28;20856;-91
2021/07/15 02:34:32;;;;;;;21.37;20.20;;;;;;;;;;5110724;28;20813;-91
2021/07/15 02:37:01;;;;;;;21.73;20.73;;;;;;;;;;5111160;28;20411;-91
2021/07/15 02:39:28;;;;;;;21.90;20.90;;;;;;;;;;5110685;28;20445;-91
2021/07/15 02:41:57;;;;;;;21.93;20.63;;;;;;;;;;5108216;28;20415;-91
2021/07/15 02:44:25;;;;;;;22.70;21.50;;;;;;;;;;5095963;28;20747;-91
2021/07/15 02:46:53;;;;;;;23.03;21.27;;;;;;;;;;5097460;28;20935;-91
2021/07/15 02:49:20;;;;;;;22.73;21.63;;;;;;;;;;5097571;28;20416;-91
2021/07/15 02:51:47;;;;;;;23.30;21.93;;;;;;;;;;5097228;28;20477;-91
2021/07/15 02:54:15;;;;;;;23.70;22.40;;;;;;;;;;5097109;28;20503;-91
2021/07/15 02:56:46;;;;;;;23.20;22.20;;;;;;;;;;5097099;28;20446;-91
2021/07/15 02:59:15;;;;;;;24.30;23.00;;;;;;;;;;5097243;28;20412;-91
2021/07/15 03:01:45;;;;;;;23.30;22.10;;;;;;;;;;5097040;28;20435;-92
2021/07/15 03:04:16;;;;;;;23.10;22.00;;;;;;;;;;5096810;28;20437;-92
2021/07/15 03:06:45;;;;;;;23.47;22.37;;;;;;;;;;5097029;28;20453;-91
2021/07/15 03:09:14;;;;;;;22.60;21.40;;;;;;;;;;5097611;28;20433;-91
2021/07/15 03:11:44;;;;;;;22.47;21.30;;;;;;;;;;5096802;27;20579;-91
2021/07/15 03:14:11;;;;;;;24.03;22.83;;;;;;;;;;5096994;28;20441;-91
2021/07/15 03:16:43;;;;;;;23.87;22.57;;;;;;;;;;5096599;28;20416;-90
2021/07/15 03:19:11;;;;;;;24.77;23.57;;;;;;;;;;5096631;28;20439;-91
2021/07/15 03:21:41;;;;;;;24.27;22.67;;;;;;;;;;5095717;28;20415;-91
2021/07/15 03:24:10;;;;;;;24.70;23.40;;;;;;;;;;5096665;28;20444;-90
2021/07/15 03:26:38;;;;;;;23.77;22.33;;;;;;;;;;5096264;28;20904;-90
2021/07/15 03:29:07;;;;;;;24.23;22.87;;;;;;;;;;5096767;28;20937;-91
2021/07/15 03:31:35;;;;;;;24.30;23.10;;;;;;;;;;5096172;28;20561;-91
2021/07/15 03:34:04;;;;;;;23.90;22.70;;;;;;;;;;5096365;28;20433;-91
2021/07/15 03:36:32;;;;;;;24.00;22.80;;;;;;;;;;5096108;28;20949;-91
2021/07/15 03:38:59;;;;;;;24.77;23.40;;;;;;;;;;5096138;28;20408;-91
2021/07/15 03:41:27;;;;;;;24.63;23.43;;;;;;;;;;5096372;28;20428;-91
2021/07/15 03:43:55;;;;;;;25.80;24.47;;;;;;;;;;5096225;28;20427;-91
2021/07/15 03:46:23;;;;;;;24.47;23.27;;;;;;;;;;5096154;28;20453;-91
2021/07/15 03:48:51;;;;;;;25.00;23.80;;;;;;;;;;5095826;28;20449;-84
2021/07/15 03:51:20;;;;;;;24.13;22.83;;;;;;;;;;5095346;28;20471;-84
2021/07/15 03:53:48;;;;;;;25.00;23.70;;;;;;;;;;5094879;28;20433;-84
2021/07/15 03:56:16;;;;;;;25.53;24.23;;;;;;;;;;5095631;28;20425;-93
2021/07/15 03:58:44;;;;;;;23.47;22.37;;;;;;;;;;5095929;28;20428;-93
2021/07/15 04:01:13;;;;;;;24.10;22.27;;;;;;;;;;5096631;28;20457;-84
2021/07/15 04:03:42;;;;;;;24.27;22.97;;;;;;;;;;5094084;28;20464;-84
2021/07/15 04:06:10;;;;;;;23.90;22.47;;;;;;;;;;5095521;28;20445;-84
2021/07/15 04:08:39;;;;;;;22.60;21.50;;;;;;;;;;5095582;28;20423;-91
2021/07/15 04:11:08;;;;;;;22.97;21.67;;;;;;;;;;5095901;28;20443;-91
2021/07/15 04:13:36;;;;;;;23.43;21.90;;;;;;;;;;5094850;28;20449;-88
2021/07/15 04:16:19;;;;;;;22.60;21.50;;;;;;;;;;5093996;28;20537;-84
2021/07/15 04:21:50;;;;;;;21.97;20.57;;;;;;;;;;5095003;28;20378;-92
2021/07/15 04:24:19;;;;;;;22.77;21.40;;;;;;;;;;5095430;28;20455;-91
2021/07/15 04:26:47;;;;;;;23.03;21.40;;;;;;;;;;5094076;28;20561;-87
2021/07/15 04:29:16;;;;;;;22.60;21.50;;;;;;;;;;5094817;28;20402;-84
2021/07/15 04:32:01;;;;;;;22.43;20.87;;;;;;;;;;5094592;28;20497;-84
2021/07/15 04:34:29;;;;;;;21.53;20.43;;;;;;;;;;5094744;28;20414;-91
2021/07/15 04:36:57;;;;;;;21.07;20.00;;;;;;;;;;5094051;28;20467;-92
2021/07/15 04:39:27;;;;;;;21.43;20.37;;;;;;;;;;5094902;28;20412;-92
2021/07/15 04:41:55;;;;;;;23.83;22.73;;;;;;;;;;5094896;28;20416;-84
2021/07/15 04:44:23;;;;;;;22.37;21.10;;;;;;;;;;5094679;28;20449;-84
2021/07/15 04:46:51;;;;;;;26.27;24.50;;;;;;;;;;5094648;28;20790;-86
2021/07/15 04:49:19;;;;;;;23.07;21.97;;;;;;;;;;5095406;28;20618;-91
2021/07/15 04:51:47;;;;;;;22.57;21.23;;;;;;;;;;5094866;28;20459;-91
2021/07/15 04:54:16;;;;;;;22.70;21.50;;;;;;;;;;5094720;28;20438;-84
2021/07/15 04:56:45;;;;;;;23.50;22.20;;;;;;;;;;5094096;28;20424;-84
2021/07/15 04:59:14;;;;;;;22.00;20.90;;;;;;;;;;5095153;28;20409;-84
2021/07/15 05:01:41;;;;;;;22.33;21.33;;;;;;;;;;5094146;28;20430;-84
2021/07/15 05:04:09;;;;;;;23.50;22.10;;;;;;;;;;5093945;28;20847;-85
2021/07/15 05:06:36;;;;;;;23.23;21.83;;;;;;;;;;5092946;28;20420;-84
2021/07/15 05:09:04;;;;;;;21.97;20.77;;;;;;;;;;5094395;28;20845;-84
2021/07/15 05:11:33;;;;;;;22.70;21.70;;;;;;;;;;5094296;28;20500;-84
2021/07/15 05:14:04;;;;;;;22.43;21.40;;;;;;;;;;5094257;28;20483;-84
2021/07/15 05:16:31;;;;;;;22.63;21.27;;;;;;;;;;5093914;28;20779;-85
2021/07/15 05:18:58;;;;;;;23.47;22.27;;;;;;;;;;5094122;28;20440;-85
2021/07/15 05:21:26;;;;;;;23.37;21.97;;;;;;;;;;5092943;28;20834;-84
2021/07/15 05:23:53;;;;;;;23.03;21.63;;;;;;;;;;5093788;28;20411;-84
2021/07/15 05:26:21;;;;;;;21.60;20.47;;;;;;;;;;5092728;28;20439;-85
2021/07/15 05:28:49;;;;;;;22.77;21.67;;;;;;;;;;5094074;28;20447;-84
2021/07/15 05:31:21;;;;;;;23.23;21.53;;;;;;;;;;5093624;28;20482;-84
2021/07/15 05:33:48;;;;;;;22.00;20.83;;;;;;;;;;5094115;28;20520;-84
2021/07/15 05:36:16;;;;;;;22.97;21.50;;;;;;;;;;5094647;28;20456;-84
2021/07/15 05:38:43;;;;;;;22.60;21.50;;;;;;;;;;5094041;28;20411;-84
2021/07/15 05:41:10;;;;;;;22.70;21.60;;;;;;;;;;5094035;28;20537;-84
2021/07/15 05:43:38;;;;;;;23.07;21.90;;;;;;;;;;5094025;28;20412;-85
2021/07/15 05:46:06;;;;;;;24.17;22.63;;;;;;;;;;5093965;28;20776;-84
2021/07/15 05:48:35;;;;;;;23.87;22.43;;;;;;;;;;5094009;28;20415;-84
2021/07/15 05:51:02;;;;;;;24.37;22.83;;;;;;;;;;5094083;28;20786;-84
2021/07/15 05:53:29;;;;;;;24.27;23.03;;;;;;;;;;5093575;28;20933;-84
2021/07/15 05:55:57;;;;;;;23.07;21.87;;;;;;;;;;5093509;28;20421;-84
2021/07/15 05:58:24;;;;;;;24.53;23.10;;;;;;;;;;5093635;28;20474;-84
2021/07/15 06:00:51;;;;;;;23.60;21.93;;;;;;;;;;5093186;28;20916;-84
2021/07/15 06:03:19;;;;;;;22.53;21.23;;;;;;;;;;5093853;28;20445;-84
2021/07/15 06:05:47;;;;;;;23.73;22.43;;;;;;;;;;5093752;28;20404;-85
2021/07/15 06:08:15;;;;;;;22.43;21.13;;;;;;;;;;5093691;28;20421;-84
2021/07/15 06:10:42;;;;;;;23.17;21.93;;;;;;;;;;5094219;28;20421;-85
2021/07/15 06:13:09;;;;;;;22.60;21.13;;;;;;;;;;5093931;28;20477;-84
2021/07/15 06:15:37;;;;;;;22.20;20.80;;;;;;;;;;5093731;28;20419;-84
2021/07/15 06:18:04;;;;;;;21.90;20.70;;;;;;;;;;5095125;28;20442;-84
2021/07/15 06:20:32;;;;;;;21.70;20.43;;;;;;;;;;5097168;28;20437;-84
2021/07/15 06:23:01;;;;;;;24.53;23.17;;;;;;;;;;5097325;28;20443;-84
2021/07/15 06:25:28;;;;;;;24.07;22.50;;;;;;;;;;5097378;28;20437;-84
2021/07/15 06:27:56;;;;;;;23.73;22.20;;;;;;;;;;5097451;28;20738;-88
2021/07/15 06:30:23;;;;;;;21.97;20.97;;;;;;;;;;5096994;28;20905;-84
2021/07/15 06:32:52;;;;;;;22.43;21.23;;;;;;;;;;5096890;28;20509;-84
2021/07/15 06:35:21;;;;;;;22.70;21.60;;;;;;;;;;5096946;27;20465;-84
2021/07/15 06:37:51;;;;;;;22.60;21.50;;;;;;;;;;5097067;28;20809;-85
2021/07/15 06:40:20;;;;;;;21.63;20.63;;;;;;;;;;5097027;28;20445;-84
2021/07/15 06:42:48;;;;;;;23.23;21.90;;;;;;;;;;5096993;28;20883;-84
2021/07/15 06:45:16;;;;;;;23.00;21.70;;;;;;;;;;5096695;28;20412;-84
2021/07/15 06:47:44;;;;;;;22.73;21.63;;;;;;;;;;5096515;28;20879;-84
2021/07/15 06:50:12;;;;;;;23.20;22.10;;;;;;;;;;5096741;28;20405;-84
2021/07/15 06:52:40;;;;;;;23.07;21.97;;;;;;;;;;5096584;28;20478;-84
2021/07/15 06:55:08;;;;;;;22.77;21.67;;;;;;;;;;5096387;28;20453;-83
2021/07/15 06:57:37;;;;;;;22.63;21.23;;;;;;;;;;5096381;28;20427;-84
2021/07/15 07:00:08;;;;;;;22.03;20.87;;;;;;;;;;5096494;28;20410;-84
2021/07/15 07:02:38;;;;;;;23.37;22.17;;;;;;;;;;5096657;28;20451;-84
2021/07/15 07:05:06;;;;;;;21.60;20.40;;;;;;;;;;5096156;28;20418;-84
2021/07/15 07:07:33;;;;;;;21.50;20.47;;;;;;;;;;5096149;28;20507;-83
2021/07/15 07:10:01;;;;;;;22.37;21.27;;;;;;;;;;5096430;28;20397;-84
2021/07/15 07:12:28;;;;;;;20.80;19.80;;;;;;;;;;5096220;28;20470;-84
2021/07/15 07:14:57;;;;;;;22.00;20.90;;;;;;;;;;5096087;28;20418;-84
2021/07/15 07:17:24;;;;;;;21.57;20.57;;;;;;;;;;5096416;28;20594;-84
2021/07/15 07:19:52;;;;;;;22.77;21.50;;;;;;;;;;5096099;28;20870;-84
2021/07/15 07:22:19;;;;;;;25.17;23.33;;;;;;;;;;5096378;28;20446;-84
2021/07/15 07:24:46;;;;;;;21.87;20.77;;;;;;;;;;5096346;28;20419;-84
2021/07/15 07:27:14;;;;;;;20.60;19.70;;;;;;;;;;5095635;28;20450;-84
2021/07/15 07:29:41;;;;;;;21.87;20.73;;;;;;;;;;5096242;28;20416;-84
2021/07/15 07:32:10;;;;;;;21.50;20.40;;;;;;;;;;5095582;28;20487;-85
2021/07/15 07:34:38;;;;;;;21.00;19.90;;;;;;;;;;5095821;28;20433;-87
2021/07/15 07:37:05;;;;;;;21.23;20.00;;;;;;;;;;5096511;28;20442;-96
2021/07/15 07:39:32;;;;;;;22.03;20.83;;;;;;;;;;5096429;28;20435;-90
2021/07/15 07:42:00;;;;;;;20.67;19.57;;;;;;;;;;5096306;28;20417;-86
2021/07/15 07:44:27;;;;;;;20.97;19.97;;;;;;;;;;5095818;28;20432;-85
2021/07/15 07:46:55;;;;;;;19.97;19.10;;;;;;;;;;5095648;28;20413;-86
2021/07/15 07:49:24;;;;;;;20.10;19.10;;;;;;;;;;5095657;28;20409;-86
2021/07/15 07:51:51;;;;;;;20.13;19.23;;;;;;;;;;5095998;28;20887;-85
2021/07/15 07:54:18;;;;;;;19.83;18.93;;;;;;;;;;5094293;28;20489;-85
2021/07/15 07:56:46;;;;;;;20.37;19.47;;;;;;;;;;5095572;28;20412;-86
2021/07/15 07:59:14;;;;;;;20.30;19.40;;;;;;;;;;5095636;28;20743;-84
2021/07/15 08:01:42;;;;;;;20.60;19.50;;;;;;;;;;5095426;28;20800;-84
2021/07/15 08:04:10;;;;;;;19.97;19.07;;;;;;;;;;5095349;28;20943;-85
2021/07/15 08:06:45;;;;;;;20.07;18.87;;;;;;;;;;5097399;28;20432;-96
2021/07/15 08:09:15;;;;;;;19.50;18.50;;;;;;;;;;5096280;28;20420;-85
2021/07/15 08:11:46;;;;;;;18.83;17.73;;;;;;;;;;5095269;28;20413;-85
2021/07/15 08:14:13;;;;;;;19.90;18.90;;;;;;;;;;5095131;28;20954;-86
2021/07/15 08:16:40;;;;;;;19.87;18.90;;;;;;;;;;5095642;28;20469;-86
2021/07/15 08:19:08;;;;;;;19.13;18.33;;;;;;;;;;5095678;28;20457;-86
2021/07/15 08:21:35;;;;;;;18.80;17.90;;;;;;;;;;5095284;28;20550;-86
2021/07/15 08:24:04;;;;;;;19.60;18.70;;;;;;;;;;5095307;28;20820;-86
2021/07/15 08:26:32;;;;;;;19.47;18.57;;;;;;;;;;5094360;28;20426;-85
2021/07/15 08:28:59;;;;;;;19.80;18.80;;;;;;;;;;5095158;28;20434;-86
2021/07/15 08:31:27;;;;;;;19.00;18.00;;;;;;;;;;5094739;28;20449;-86
2021/07/15 08:33:54;;;;;;;19.20;18.17;;;;;;;;;;5095068;28;20469;-85
2021/07/15 08:36:22;;;;;;;19.30;18.40;;;;;;;;;;5094991;27;20433;-86
2021/07/15 08:38:50;;;;;;;18.70;17.80;;;;;;;;;;5095355;28;20761;-86
2021/07/15 08:41:18;;;;;;;20.07;19.13;;;;;;;;;;5094418;28;20910;-86
2021/07/15 08:43:46;;;;;;;20.10;19.10;;;;;;;;;;5095012;28;20417;-86
2021/07/15 08:46:15;;;;;;;19.53;18.63;;;;;;;;;;5095461;28;20459;-86
2021/07/15 08:48:44;;;;;;;19.80;18.90;;;;;;;;;;5095057;28;20448;-86
2021/07/15 08:51:11;;;;;;;18.57;17.60;;;;;;;;;;5094970;28;20784;-86
2021/07/15 08:53:39;;;;;;;18.87;17.97;;;;;;;;;;5094821;28;20473;-86
2021/07/15 08:58:53;;;;;;;20.13;19.13;;;;;;;;;;5094485;28;20459;-86
2021/07/15 09:01:21;;;;;;;19.53;18.63;;;;;;;;;;5094852;28;20425;-86
2021/07/15 09:03:48;;;;;;;19.87;18.97;;;;;;;;;;5094669;28;20428;-86
2021/07/15 09:06:16;;;;;;;19.80;18.80;;;;;;;;;;5094675;28;20428;-86
2021/07/15 09:08:43;;;;;;;19.33;18.37;;;;;;;;;;5093589;28;20429;-86
2021/07/15 09:11:10;;;;;;;20.07;19.17;;;;;;;;;;5094462;28;20430;-85
2021/07/15 09:13:38;;;;;;;21.33;20.03;;;;;;;;;;5094475;28;20479;-86
2021/07/15 09:16:13;;;;;;;20.10;19.00;;;;;;;;;;5093300;28;20439;-86
2021/07/15 09:18:54;;;;;;;20.60;19.70;;;;;;;;;;5094345;28;20502;-86
2021/07/15 09:21:22;;;;;;;20.40;19.40;;;;;;;;;;5094499;28;20430;-86
2021/07/15 09:23:50;;;;;;;19.90;19.00;;;;;;;;;;5094391;28;20414;-86
2021/07/15 09:26:17;;;;;;;19.93;19.03;;;;;;;;;;5094312;28;20427;-87
2021/07/15 09:28:45;;;;;;;20.30;19.30;;;;;;;;;;5094220;28;20439;-87
2021/07/15 09:31:21;;;;;;;20.17;19.23;;;;;;;;;;5094388;28;20828;-86
2021/07/15 09:33:49;;;;;;;19.77;18.70;;;;;;;;;;5094574;28;20465;-86
2021/07/15 09:36:19;;;;;;;20.50;19.50;;;;;;;;;;5094230;28;20422;-86
2021/07/15 09:38:47;;;;;;;20.23;19.33;;;;;;;;;;5094589;28;20419;-86
2021/07/15 09:41:19;;;;;;;20.30;19.20;;;;;;;;;;5094015;28;20925;-86
2021/07/15 09:43:47;;;;;;;19.50;18.60;;;;;;;;;;5094540;28;20453;-86
2021/07/15 09:46:23;;;;;;;20.00;19.10;;;;;;;;;;5094213;28;20409;-86
2021/07/15 09:48:52;;;;;;;19.93;18.73;;;;;;;;;;5093722;28;20934;-85
2021/07/15 09:51:20;;;;;;;19.77;18.77;;;;;;;;;;5092755;28;20928;-86
2021/07/15 09:53:49;;;;;;;20.00;19.00;;;;;;;;;;5097022;28;20470;-86
2021/07/15 09:56:18;;;;;;;19.53;18.63;;;;;;;;;;5097844;28;20423;-86
2021/07/15 09:58:46;;;;;;;19.83;18.43;;;;;;;;;;5098439;28;20513;-86
2021/07/15 10:01:14;;;;;;;19.37;18.47;;;;;;;;;;5098186;28;20469;-86
2021/07/15 10:03:44;;;;;;;20.90;19.80;;;;;;;;;;5096490;28;20517;-85
2021/07/15 10:06:13;;;;;;;20.60;19.60;;;;;;;;;;5097526;28;20456;-86
2021/07/15 10:08:41;;;;;;;19.50;18.60;;;;;;;;;;5097861;28;20873;-86
2021/07/15 10:11:18;;;;;;;19.67;18.67;;;;;;;;;;5097585;28;20435;-86
2021/07/15 10:13:46;;;;;;;20.40;19.20;;;;;;;;;;5097677;28;20476;-86
2021/07/15 10:16:14;;;;;;;19.77;18.77;;;;;;;;;;5098078;28;20451;-86
2021/07/15 10:18:42;;;;;;;20.57;19.57;;;;;;;;;;5097460;28;20449;-86
2021/07/15 10:21:12;;;;;;;19.27;18.17;;;;;;;;;;5097605;28;20427;-85
2021/07/15 10:23:40;;;;;;;20.00;18.90;;;;;;;;;;5097436;28;20435;-86
2021/07/15 10:26:09;;;;;;;20.17;19.17;;;;;;;;;;5097571;28;20426;-86
2021/07/15 10:28:37;;;;;;;20.57;19.23;;;;;;;;;;5097590;28;20451;-86
2021/07/15 10:31:05;;;;;;;19.60;18.70;;;;;;;;;;5096162;28;20498;-86
2021/07/15 10:33:33;;;;;;;20.17;19.17;;;;;;;;;;5097520;28;20481;-86
2021/07/15 10:36:01;;;;;;;19.93;18.90;;;;;;;;;;5097047;28;20447;-86
2021/07/15 10:38:31;;;;;;;21.00;19.70;;;;;;;;;;5097773;28;20447;-86
2021/07/15 10:40:59;;;;;;;19.60;18.60;;;;;;;;;;5096991;28;20426;-85
2021/07/15 10:43:27;;;;;;;19.93;18.83;;;;;;;;;;5097014;28;20468;-85
2021/07/15 10:45:57;;;;;;;20.10;19.00;;;;;;;;;;5097193;28;20445;-85
2021/07/15 10:48:26;;;;;;;20.30;19.30;;;;;;;;;;5096852;28;20411;-86
2021/07/15 10:50:53;;;;;;;20.07;19.03;;;;;;;;;;5097047;28;20447;-85
2021/07/15 10:53:21;;;;;;;20.07;19.07;;;;;;;;;;5096806;28;20475;-85
2021/07/15 10:55:52;;;;;;;20.67;19.57;;;;;;;;;;5096704;28;20464;-85
2021/07/15 10:58:34;;;;;;;20.03;18.83;;;;;;;;;;5096994;28;20411;-85
2021/07/15 11:01:02;;;;;;;21.00;19.80;;;;;;;;;;5095710;28;20480;-85
2021/07/15 11:03:29;;;;;;;20.00;18.80;;;;;;;;;;5095997;28;20415;-85
2021/07/15 11:05:58;;;;;;;19.60;18.63;;;;;;;;;;5095369;28;20853;-85
2021/07/15 11:08:40;;;;;;;19.97;19.07;;;;;;;;;;5096702;28;20411;-85
2021/07/15 11:11:09;;;;;;;20.40;19.33;;;;;;;;;;5096343;28;20449;-85
2021/07/15 11:13:37;;;;;;;19.90;18.83;;;;;;;;;;5096531;28;20490;-85
2021/07/15 11:16:07;;;;;;;19.80;18.80;;;;;;;;;;5096169;28;20936;-85
2021/07/15 11:18:50;;;;;;;19.70;18.70;;;;;;;;;;5096453;28;20453;-86
2021/07/15 11:21:31;;;;;;;20.13;19.03;;;;;;;;;;5096456;28;20822;-86
2021/07/15 11:24:14;;;;;;;19.83;18.83;;;;;;;;;;5096164;28;20884;-85
2021/07/15 11:26:43;;;;;;;20.30;19.20;;;;;;;;;;5095970;28;20449;-85
2021/07/15 11:29:11;;;;;;;20.40;19.40;;;;;;;;;;5096155;28;20475;-90
2021/07/15 11:31:43;;;;;;;20.90;19.70;;;;;;;;;;5095920;27;20999;-86
2021/07/15 11:34:11;;;;;;;20.00;19.00;;;;;;;;;;5096075;28;20451;-86
2021/07/15 11:36:38;;;;;;;20.63;19.50;;;;;;;;;;5096337;28;20438;-86
2021/07/15 11:39:06;;;;;;;20.40;19.40;;;;;;;;;;5096264;28;20451;-86
2021/07/15 11:41:54;;;;;;;21.70;20.20;;;;;;;;;;5095913;28;20412;-85
2021/07/15 11:44:21;;;;;;;20.60;19.50;;;;;;;;;;5096345;28;20431;-85
2021/07/15 11:46:48;;;;;;;19.30;18.33;;;;;;;;;;5095845;28;20420;-86
2021/07/15 11:49:22;;;;;;;20.70;19.70;;;;;;;;;;5095745;28;20453;-85
2021/07/15 11:52:00;;;;;;;21.57;20.27;;;;;;;;;;5095817;28;20443;-85
2021/07/15 11:54:34;;;;;;;20.93;19.83;;;;;;;;;;5095689;28;20493;-85
2021/07/15 11:57:21;;;;;;;21.10;19.80;;;;;;;;;;5095501;28;20928;-85
2021/07/15 11:59:49;;;;;;;20.30;19.20;;;;;;;;;;5092584;28;20412;-84
2021/07/15 12:02:26;;;;;;;20.60;19.50;;;;;;;;;;5095396;28;20396;-85
2021/07/15 12:05:13;;;;;;;20.37;19.37;;;;;;;;;;5095909;28;20460;-85
2021/07/15 12:07:42;;;;;;;20.60;19.50;;;;;;;;;;5095356;28;20421;-86
2021/07/15 12:10:10;;;;;;;20.20;19.00;;;;;;;;;;5095619;28;20445;-86
2021/07/15 12:12:43;;;;;;;20.20;19.00;;;;;;;;;;5095325;27;20931;-83
2021/07/15 12:15:17;;;;;;;19.40;18.40;;;;;;;;;;5093608;28;21294;-85
2021/07/15 12:17:45;;;;;;;20.27;18.90;;;;;;;;;;5095013;28;20451;-86
2021/07/15 12:20:12;;;;;;;20.00;18.90;;;;;;;;;;5095447;28;20431;-85
2021/07/15 12:23:00;;;;;;;20.70;19.20;;;;;;;;;;5095133;28;20442;-86
2021/07/15 12:25:29;;;;;;;20.20;19.20;;;;;;;;;;5090541;28;20500;-86
2021/07/15 12:28:01;;;;;;;20.23;19.10;;;;;;;;;;5095043;28;20407;-85
2021/07/15 12:30:39;;;;;;;20.80;19.70;;;;;;;;;;5096510;28;20494;-86
2021/07/15 12:33:07;;;;;;;20.60;19.50;;;;;;;;;;5094573;28;20455;-86
2021/07/15 12:35:35;;;;;;;20.40;19.30;;;;;;;;;;5095277;28;20809;-86
2021/07/15 12:38:17;;;;;;;21.50;20.40;;;;;;;;;;5094781;28;20904;-86
2021/07/15 12:40:45;;;;;;;20.63;19.43;;;;;;;;;;5095017;28;20425;-85
2021/07/15 12:43:18;;;;;;;20.90;19.80;;;;;;;;;;5094717;28;20404;-86
2021/07/15 12:45:50;;;;;;;20.60;19.50;;;;;;;;;;5094793;28;20443;-85
2021/07/15 12:48:21;;;;;;;20.03;18.93;;;;;;;;;;5093786;28;20448;-85
2021/07/15 12:50:51;;;;;;;20.37;19.27;;;;;;;;;;5094883;28;20444;-85
2021/07/15 12:53:21;;;;;;;21.03;19.83;;;;;;;;;;5094424;28;20903;-85
2021/07/15 12:55:48;;;;;;;20.33;19.03;;;;;;;;;;5094069;28;20579;-85
2021/07/15 12:58:17;;;;;;;21.23;20.13;;;;;;;;;;5094586;28;20437;-83
2021/07/15 13:00:45;;;;;;;20.10;19.00;;;;;;;;;;5094445;28;20432;-83
2021/07/15 13:03:12;;;;;;;20.60;19.50;;;;;;;;;;5094770;28;20411;-86
2021/07/15 13:05:40;;;;;;;20.13;19.13;;;;;;;;;;5094195;28;20942;-85
2021/07/15 13:08:09;;;;;;;21.63;20.27;;;;;;;;;;5094743;28;20453;-86
2021/07/15 13:14:13;;;;;;;21.20;19.97;;;;;;;;;;5094366;28;20427;-86
2021/07/15 13:16:17;;;;;;;21.50;20.40;;;;;;;;;;5094302;28;20411;-85
2021/07/15 13:18:44;;;;;;;21.80;20.60;;;;;;;;;;5094251;28;20439;-86
2021/07/15 13:21:12;;;;;;;21.73;20.30;;;;;;;;;;5092826;28;20411;-85
2021/07/15 13:23:40;;;;;;;22.47;20.93;;;;;;;;;;5092492;28;20407;-84
2021/07/15 13:26:15;;;;;;;21.37;20.17;;;;;;;;;;5092658;28;20430;-85
2021/07/15 13:28:43;;;;;;;21.90;20.80;;;;;;;;;;5094064;28;20413;-85
2021/07/15 13:31:15;;;;;;;23.00;21.80;;;;;;;;;;5093716;28;20455;-84
2021/07/15 13:33:44;;;;;;;22.80;21.40;;;;;;;;;;5094131;28;20441;-85
2021/07/15 13:36:11;;;;;;;22.43;21.23;;;;;;;;;;5094348;28;20451;-85
2021/07/15 13:38:42;;;;;;;22.40;21.20;;;;;;;;;;5094083;28;20491;-85
2021/07/15 13:41:22;;;;;;;20.47;19.37;;;;;;;;;;5093941;28;20420;-96
2021/07/15 13:43:51;;;;;;;21.60;20.40;;;;;;;;;;5093112;28;20440;-86
2021/07/15 13:46:19;;;;;;;22.00;20.70;;;;;;;;;;5092755;28;20828;-85
2021/07/15 13:48:46;;;;;;;22.03;20.70;;;;;;;;;;5094015;28;20412;-85
2021/07/15 13:51:14;;;;;;;20.90;19.70;;;;;;;;;;5093586;28;20420;-85
2021/07/15 13:53:41;;;;;;;21.20;19.90;;;;;;;;;;5094027;28;20761;-85
2021/07/15 13:56:09;;;;;;;21.60;20.30;;;;;;;;;;5093363;28;20809;-85
2021/07/15 13:58:37;;;;;;;21.23;20.03;;;;;;;;;;5093419;28;20413;-85
2021/07/15 14:01:06;;;;;;;20.83;19.73;;;;;;;;;;5093593;28;20408;-85
2021/07/15 14:03:33;;;;;;;21.33;20.03;;;;;;;;;;5092459;28;20427;-85
2021/07/15 14:06:01;;;;;;;22.43;21.23;;;;;;;;;;5093722;28;20445;-85
2021/07/15 14:08:33;;;;;;;21.17;20.07;;;;;;;;;;5093684;28;20434;-84
2021/07/15 14:11:01;;;;;;;21.10;19.90;;;;;;;;;;5092311;28;20466;-85
2021/07/15 14:13:30;;;;;;;21.40;20.20;;;;;;;;;;5093666;28;20442;-85
2021/07/15 14:16:02;;;;;;;22.00;20.77;;;;;;;;;;5092090;28;20994;-85
2021/07/15 14:18:32;;;;;;;21.07;19.83;;;;;;;;;;5075536;28;20489;-85
2021/07/15 14:21:00;;;;;;;21.83;20.63;;;;;;;;;;5093495;28;20827;-85
2021/07/15 14:23:29;;;;;;;22.13;20.67;;;;;;;;;;5092334;28;20434;-85
2021/07/15 14:25:58;;;;;;;22.30;21.03;;;;;;;;;;5093285;28;20413;-84
2021/07/15 14:28:26;;;;;;;22.20;21.00;;;;;;;;;;5093713;28;20864;-85
2021/07/15 14:30:54;;;;;;;22.10;20.90;;;;;;;;;;5093311;28;20502;-85
2021/07/15 14:33:21;;;;;;;21.17;19.97;;;;;;;;;;5094019;28;20423;-85
2021/07/15 14:35:51;;;;;;;21.20;20.00;;;;;;;;;;5093406;28;20486;-85
2021/07/15 14:38:19;;;;;;;21.43;20.13;;;;;;;;;;5092809;28;20446;-85
2021/07/15 14:40:47;;;;;;;21.53;20.33;;;;;;;;;;5096077;28;20883;-85